sensor_id;sensor_type;location;lat;lon;timestamp;pressure;altitude;pressure_sealevel;temperature;humidity
36254;BME280;22291;52.250;21.228;2023-11-19T00:01:33;100932.00;;;-0.21;97.74
36254;BME280;22291;52.250;21.228;2023-11-19T00:03:59;100942.95;;;-0.20;97.85
36254;BME280;22291;52.250;21.228;2023-11-19T00:06:26;100938.95;;;-0.20;97.87
36254;BME280;22291;52.250;21.228;2023-11-19T00:08:54;100936.42;;;-0.24;97.64
36254;BME280;22291;52.250;21.228;2023-11-19T00:11:21;100941.47;;;-0.25;97.73
36254;BME280;22291;52.250;21.228;2023-11-19T00:13:48;100944.92;;;-0.25;97.91
36254;BME280;22291;52.250;21.228;2023-11-19T00:16:15;100939.83;;;-0.26;97.94
36254;BME280;22291;52.250;21.228;2023-11-19T00:18:42;100949.44;;;-0.25;98.09
36254;BME280;22291;52.250;21.228;2023-11-19T00:21:08;100940.35;;;-0.27;98.18
36254;BME280;22291;52.250;21.228;2023-11-19T00:23:36;100942.58;;;-0.24;98.15
36254;BME280;22291;52.250;21.228;2023-11-19T00:26:04;100938.37;;;-0.22;98.18
36254;BME280;22291;52.250;21.228;2023-11-19T00:28:32;100940.28;;;-0.20;98.26
36254;BME280;22291;52.250;21.228;2023-11-19T00:30:59;100929.92;;;-0.19;98.29
36254;BME280;22291;52.250;21.228;2023-11-19T00:33:26;100920.62;;;-0.19;98.27
36254;BME280;22291;52.250;21.228;2023-11-19T00:35:53;100921.73;;;-0.17;98.32
36254;BME280;22291;52.250;21.228;2023-11-19T00:38:19;100923.59;;;-0.18;98.21
36254;BME280;22291;52.250;21.228;2023-11-19T00:40:46;100930.02;;;-0.16;98.19
36254;BME280;22291;52.250;21.228;2023-11-19T00:43:13;100927.88;;;-0.17;98.26
36254;BME280;22291;52.250;21.228;2023-11-19T00:45:40;100914.86;;;-0.16;98.21
36254;BME280;22291;52.250;21.228;2023-11-19T00:48:07;100906.61;;;-0.17;98.29
36254;BME280;22291;52.250;21.228;2023-11-19T00:50:35;100896.03;;;-0.14;98.26
36254;BME280;22291;52.250;21.228;2023-11-19T00:53:03;100894.70;;;-0.14;98.21
36254;BME280;22291;52.250;21.228;2023-11-19T00:55:29;100888.27;;;-0.16;98.08
36254;BME280;22291;52.250;21.228;2023-11-19T00:57:56;100893.06;;;-0.15;98.09
36254;BME280;22291;52.250;21.228;2023-11-19T01:00:24;100887.25;;;-0.15;98.07
36254;BME280;22291;52.250;21.228;2023-11-19T01:02:52;100887.25;;;-0.15;98.00
36254;BME280;22291;52.250;21.228;2023-11-19T01:05:20;100889.59;;;-0.16;98.02
36254;BME280;22291;52.250;21.228;2023-11-19T01:07:49;100882.15;;;-0.16;97.98
36254;BME280;22291;52.250;21.228;2023-11-19T01:10:15;100881.70;;;-0.13;97.95
36254;BME280;22291;52.250;21.228;2023-11-19T01:12:42;100883.53;;;-0.14;97.91
36254;BME280;22291;52.250;21.228;2023-11-19T01:15:09;100879.55;;;-0.14;98.00
36254;BME280;22291;52.250;21.228;2023-11-19T01:17:37;100873.20;;;-0.13;97.92
36254;BME280;22291;52.250;21.228;2023-11-19T01:20:06;100857.47;;;-0.14;97.93
36254;BME280;22291;52.250;21.228;2023-11-19T01:22:33;100859.11;;;-0.13;97.93
36254;BME280;22291;52.250;21.228;2023-11-19T01:24:59;100849.71;;;-0.16;97.75
36254;BME280;22291;52.250;21.228;2023-11-19T01:27:26;100844.12;;;-0.17;97.69
36254;BME280;22291;52.250;21.228;2023-11-19T01:29:52;100844.03;;;-0.20;97.63
36254;BME280;22291;52.250;21.228;2023-11-19T01:32:19;100847.22;;;-0.20;97.72
36254;BME280;22291;52.250;21.228;2023-11-19T01:34:46;100845.36;;;-0.20;97.70
36254;BME280;22291;52.250;21.228;2023-11-19T01:37:12;100847.22;;;-0.20;97.73
36254;BME280;22291;52.250;21.228;2023-11-19T01:39:40;100847.44;;;-0.22;97.70
36254;BME280;22291;52.250;21.228;2023-11-19T01:42:11;100838.41;;;-0.21;97.98
36254;BME280;22291;52.250;21.228;2023-11-19T01:44:41;100836.14;;;-0.17;98.11
36254;BME280;22291;52.250;21.228;2023-11-19T01:47:09;100839.88;;;-0.15;97.92
36254;BME280;22291;52.250;21.228;2023-11-19T01:49:36;100843.87;;;-0.15;97.69
36254;BME280;22291;52.250;21.228;2023-11-19T01:52:04;100841.45;;;-0.17;97.57
36254;BME280;22291;52.250;21.228;2023-11-19T01:54:31;100843.06;;;-0.16;97.56
36254;BME280;22291;52.250;21.228;2023-11-19T01:56:59;100826.22;;;-0.19;97.54
36254;BME280;22291;52.250;21.228;2023-11-19T01:59:28;100824.84;;;-0.22;97.42
36254;BME280;22291;52.250;21.228;2023-11-19T02:01:55;100819.22;;;-0.23;97.60
36254;BME280;22291;52.250;21.228;2023-11-19T02:04:23;100808.58;;;-0.23;97.68
36254;BME280;22291;52.250;21.228;2023-11-19T02:06:52;100804.89;;;-0.22;97.83
36254;BME280;22291;52.250;21.228;2023-11-19T02:09:21;100801.94;;;-0.23;97.75
36254;BME280;22291;52.250;21.228;2023-11-19T02:11:48;100796.84;;;-0.24;97.70
36254;BME280;22291;52.250;21.228;2023-11-19T02:14:17;100789.03;;;-0.28;97.73
36254;BME280;22291;52.250;21.228;2023-11-19T02:16:45;100793.91;;;-0.25;97.94
36254;BME280;22291;52.250;21.228;2023-11-19T02:19:12;100793.07;;;-0.26;98.04
36254;BME280;22291;52.250;21.228;2023-11-19T02:21:39;100789.91;;;-0.25;97.99
36254;BME280;22291;52.250;21.228;2023-11-19T02:24:10;100792.85;;;-0.24;97.95
36254;BME280;22291;52.250;21.228;2023-11-19T02:27:02;100789.61;;;-0.26;97.89
36254;BME280;22291;52.250;21.228;2023-11-19T02:29:26;100784.59;;;-0.25;97.99
36254;BME280;22291;52.250;21.228;2023-11-19T02:31:53;100779.78;;;-0.26;98.04
36254;BME280;22291;52.250;21.228;2023-11-19T02:34:21;100777.38;;;-0.27;97.97
36254;BME280;22291;52.250;21.228;2023-11-19T02:36:48;100778.39;;;-0.28;98.00
36254;BME280;22291;52.250;21.228;2023-11-19T02:39:16;100773.88;;;-0.28;98.14
36254;BME280;22291;52.250;21.228;2023-11-19T02:41:44;100773.08;;;-0.28;98.02
36254;BME280;22291;52.250;21.228;2023-11-19T02:44:11;100762.45;;;-0.28;98.08
36254;BME280;22291;52.250;21.228;2023-11-19T02:46:37;100761.86;;;-0.30;97.99
36254;BME280;22291;52.250;21.228;2023-11-19T02:49:04;100757.27;;;-0.32;98.06
36254;BME280;22291;52.250;21.228;2023-11-19T02:51:32;100758.32;;;-0.33;97.92
36254;BME280;22291;52.250;21.228;2023-11-19T02:54:02;100758.32;;;-0.33;98.12
36254;BME280;22291;52.250;21.228;2023-11-19T02:56:29;100753.00;;;-0.33;98.27
36254;BME280;22291;52.250;21.228;2023-11-19T02:58:58;100743.17;;;-0.33;98.44
36254;BME280;22291;52.250;21.228;2023-11-19T03:01:25;100740.59;;;-0.30;98.57
36254;BME280;22291;52.250;21.228;2023-11-19T03:03:58;100732.62;;;-0.30;98.46
36254;BME280;22291;52.250;21.228;2023-11-19T03:06:28;100733.34;;;-0.32;98.40
36254;BME280;22291;52.250;21.228;2023-11-19T03:08:55;100731.79;;;-0.31;98.61
36254;BME280;22291;52.250;21.228;2023-11-19T03:11:23;100724.92;;;-0.29;98.74
36254;BME280;22291;52.250;21.228;2023-11-19T03:13:51;100721.54;;;-0.27;98.72
36254;BME280;22291;52.250;21.228;2023-11-19T03:16:18;100714.89;;;-0.27;98.64
36254;BME280;22291;52.250;21.228;2023-11-19T03:18:45;100710.38;;;-0.27;98.62
36254;BME280;22291;52.250;21.228;2023-11-19T03:21:11;100710.30;;;-0.29;98.47
36254;BME280;22291;52.250;21.228;2023-11-19T03:23:38;100713.48;;;-0.30;98.53
36254;BME280;22291;52.250;21.228;2023-11-19T03:26:06;100705.51;;;-0.30;98.67
36254;BME280;22291;52.250;21.228;2023-11-19T03:28:34;100707.41;;;-0.28;98.72
36254;BME280;22291;52.250;21.228;2023-11-19T03:31:06;100707.14;;;-0.29;98.53
36254;BME280;22291;52.250;21.228;2023-11-19T03:33:36;100706.84;;;-0.30;98.52
36254;BME280;22291;52.250;21.228;2023-11-19T03:36:05;100697.00;;;-0.29;98.75
36254;BME280;22291;52.250;21.228;2023-11-19T03:38:33;100687.48;;;-0.28;98.86
36254;BME280;22291;52.250;21.228;2023-11-19T03:41:00;100673.91;;;-0.29;98.83
36254;BME280;22291;52.250;21.228;2023-11-19T03:43:27;100673.16;;;-0.27;98.83
36254;BME280;22291;52.250;21.228;2023-11-19T03:45:53;100669.70;;;-0.27;98.92
36254;BME280;22291;52.250;21.228;2023-11-19T03:48:20;100676.09;;;-0.26;99.02
36254;BME280;22291;52.250;21.228;2023-11-19T03:50:48;100677.50;;;-0.23;98.97
36254;BME280;22291;52.250;21.228;2023-11-19T03:53:15;100676.09;;;-0.26;98.73
36254;BME280;22291;52.250;21.228;2023-11-19T03:55:42;100668.64;;;-0.26;98.68
36254;BME280;22291;52.250;21.228;2023-11-19T03:58:10;100664.08;;;-0.28;98.69
36254;BME280;22291;52.250;21.228;2023-11-19T04:00:38;100670.20;;;-0.28;98.73
36254;BME280;22291;52.250;21.228;2023-11-19T04:03:04;100667.77;;;-0.29;98.69
36254;BME280;22291;52.250;21.228;2023-11-19T04:05:32;100660.84;;;-0.30;98.71
36254;BME280;22291;52.250;21.228;2023-11-19T04:07:59;100654.47;;;-0.29;98.92
36254;BME280;22291;52.250;21.228;2023-11-19T04:10:26;100648.66;;;-0.29;99.05
36254;BME280;22291;52.250;21.228;2023-11-19T04:12:53;100637.49;;;-0.28;99.09
36254;BME280;22291;52.250;21.228;2023-11-19T04:15:20;100642.81;;;-0.28;99.14
36254;BME280;22291;52.250;21.228;2023-11-19T04:17:46;100638.82;;;-0.28;99.13
36254;BME280;22291;52.250;21.228;2023-11-19T04:20:13;100630.84;;;-0.28;99.27
36254;BME280;22291;52.250;21.228;2023-11-19T04:22:41;100633.81;;;-0.27;99.34
36254;BME280;22291;52.250;21.228;2023-11-19T04:25:08;100626.86;;;-0.28;99.26
36254;BME280;22291;52.250;21.228;2023-11-19T04:27:35;100625.98;;;-0.31;99.12
36254;BME280;22291;52.250;21.228;2023-11-19T04:30:01;100621.69;;;-0.32;99.17
36254;BME280;22291;52.250;21.228;2023-11-19T04:32:31;100616.15;;;-0.31;99.42
36254;BME280;22291;52.250;21.228;2023-11-19T04:34:58;100606.13;;;-0.29;99.47
36254;BME280;22291;52.250;21.228;2023-11-19T04:37:25;100606.62;;;-0.29;99.42
36254;BME280;22291;52.250;21.228;2023-11-19T04:39:51;100597.84;;;-0.30;99.48
36254;BME280;22291;52.250;21.228;2023-11-19T04:42:18;100596.73;;;-0.31;99.42
36254;BME280;22291;52.250;21.228;2023-11-19T04:44:46;100598.59;;;-0.32;99.43
36254;BME280;22291;52.250;21.228;2023-11-19T04:47:13;100590.31;;;-0.33;99.50
36254;BME280;22291;52.250;21.228;2023-11-19T04:49:40;100588.46;;;-0.32;99.66
36254;BME280;22291;52.250;21.228;2023-11-19T04:52:11;100573.27;;;-0.34;99.66
36254;BME280;22291;52.250;21.228;2023-11-19T04:54:41;100570.16;;;-0.31;99.77
36254;BME280;22291;52.250;21.228;2023-11-19T04:57:12;100561.66;;;-0.31;99.75
36254;BME280;22291;52.250;21.228;2023-11-19T04:59:38;100560.33;;;-0.31;99.79
36254;BME280;22291;52.250;21.228;2023-11-19T05:02:05;100550.22;;;-0.31;99.83
36254;BME280;22291;52.250;21.228;2023-11-19T05:04:32;100558.20;;;-0.31;99.90
36254;BME280;22291;52.250;21.228;2023-11-19T05:06:59;100554.66;;;-0.34;99.70
36254;BME280;22291;52.250;21.228;2023-11-19T05:09:26;100553.06;;;-0.35;99.79
36254;BME280;22291;52.250;21.228;2023-11-19T05:11:52;100551.73;;;-0.35;99.85
36254;BME280;22291;52.250;21.228;2023-11-19T05:14:20;100550.85;;;-0.39;99.81
36254;BME280;22291;52.250;21.228;2023-11-19T05:16:48;100547.09;;;-0.40;99.92
36254;BME280;22291;52.250;21.228;2023-11-19T05:19:15;100546.30;;;-0.41;100.00
36254;BME280;22291;52.250;21.228;2023-11-19T05:21:43;100540.45;;;-0.40;100.00
36254;BME280;22291;52.250;21.228;2023-11-19T05:24:11;100537.27;;;-0.40;100.00
36254;BME280;22291;52.250;21.228;2023-11-19T05:26:40;100537.27;;;-0.40;100.00
36254;BME280;22291;52.250;21.228;2023-11-19T05:29:08;100529.02;;;-0.41;100.00
36254;BME280;22291;52.250;21.228;2023-11-19T05:31:36;100524.80;;;-0.39;100.00
36254;BME280;22291;52.250;21.228;2023-11-19T05:34:06;100524.05;;;-0.37;100.00
36254;BME280;22291;52.250;21.228;2023-11-19T05:36:33;100526.98;;;-0.36;100.00
36254;BME280;22291;52.250;21.228;2023-11-19T05:39:00;100528.08;;;-0.34;100.00
36254;BME280;22291;52.250;21.228;2023-11-19T05:41:27;100526.52;;;-0.33;100.00
36254;BME280;22291;52.250;21.228;2023-11-19T05:43:53;100523.06;;;-0.33;100.00
36254;BME280;22291;52.250;21.228;2023-11-19T05:46:20;100525.99;;;-0.32;100.00
36254;BME280;22291;52.250;21.228;2023-11-19T05:48:47;100524.44;;;-0.31;100.00
36254;BME280;22291;52.250;21.228;2023-11-19T05:51:14;100526.82;;;-0.32;100.00
36254;BME280;22291;52.250;21.228;2023-11-19T05:53:43;100529.48;;;-0.32;100.00
36254;BME280;22291;52.250;21.228;2023-11-19T05:56:11;100529.98;;;-0.32;100.00
36254;BME280;22291;52.250;21.228;2023-11-19T05:58:38;100529.18;;;-0.33;100.00
36254;BME280;22291;52.250;21.228;2023-11-19T06:01:06;100525.72;;;-0.33;100.00
36254;BME280;22291;52.250;21.228;2023-11-19T06:03:33;100521.20;;;-0.33;100.00
36254;BME280;22291;52.250;21.228;2023-11-19T06:06:01;100520.17;;;-0.32;100.00
36254;BME280;22291;52.250;21.228;2023-11-19T06:08:28;100520.45;;;-0.31;100.00
36254;BME280;22291;52.250;21.228;2023-11-19T06:10:56;100523.41;;;-0.30;100.00
36254;BME280;22291;52.250;21.228;2023-11-19T06:13:25;100526.14;;;-0.27;100.00
36254;BME280;22291;52.250;21.228;2023-11-19T06:15:52;100520.83;;;-0.27;100.00
36254;BME280;22291;52.250;21.228;2023-11-19T06:18:19;100519.99;;;-0.28;100.00
36254;BME280;22291;52.250;21.228;2023-11-19T06:20:47;100511.79;;;-0.26;100.00
36254;BME280;22291;52.250;21.228;2023-11-19T06:23:16;100511.22;;;-0.28;100.00
36254;BME280;22291;52.250;21.228;2023-11-19T06:25:43;100514.75;;;-0.25;100.00
36254;BME280;22291;52.250;21.228;2023-11-19T06:28:10;100502.48;;;-0.26;100.00
36254;BME280;22291;52.250;21.228;2023-11-19T06:30:37;100506.77;;;-0.25;100.00
36254;BME280;22291;52.250;21.228;2023-11-19T06:33:05;100502.78;;;-0.25;100.00
36254;BME280;22291;52.250;21.228;2023-11-19T06:35:32;100507.05;;;-0.24;100.00
36254;BME280;22291;52.250;21.228;2023-11-19T06:38:01;100510.76;;;-0.25;100.00
36254;BME280;22291;52.250;21.228;2023-11-19T06:40:30;100503.05;;;-0.24;100.00
36254;BME280;22291;52.250;21.228;2023-11-19T06:42:59;100500.70;;;-0.23;100.00
36254;BME280;22291;52.250;21.228;2023-11-19T06:45:26;100496.17;;;-0.23;100.00
36254;BME280;22291;52.250;21.228;2023-11-19T06:47:54;100494.28;;;-0.25;100.00
36254;BME280;22291;52.250;21.228;2023-11-19T06:50:21;100487.10;;;-0.24;100.00
36254;BME280;22291;52.250;21.228;2023-11-19T06:52:50;100478.33;;;-0.25;100.00
36254;BME280;22291;52.250;21.228;2023-11-19T06:55:17;100471.11;;;-0.27;100.00
36254;BME280;22291;52.250;21.228;2023-11-19T06:57:43;100468.16;;;-0.28;100.00
36254;BME280;22291;52.250;21.228;2023-11-19T07:00:12;100465.27;;;-0.26;100.00
36254;BME280;22291;52.250;21.228;2023-11-19T07:02:40;100461.01;;;-0.27;100.00
36254;BME280;22291;52.250;21.228;2023-11-19T07:05:08;100460.52;;;-0.24;100.00
36254;BME280;22291;52.250;21.228;2023-11-19T07:07:34;100454.41;;;-0.25;100.00
36254;BME280;22291;52.250;21.228;2023-11-19T07:10:02;100437.92;;;-0.24;100.00
36254;BME280;22291;52.250;21.228;2023-11-19T07:12:31;100446.53;;;-0.20;100.00
36254;BME280;22291;52.250;21.228;2023-11-19T07:14:59;100437.45;;;-0.21;100.00
36254;BME280;22291;52.250;21.228;2023-11-19T07:17:26;100435.90;;;-0.20;100.00
36254;BME280;22291;52.250;21.228;2023-11-19T07:19:53;100438.26;;;-0.21;100.00
36254;BME280;22291;52.250;21.228;2023-11-19T07:22:20;100434.11;;;-0.16;100.00
36254;BME280;22291;52.250;21.228;2023-11-19T07:24:47;100431.78;;;-0.13;100.00
36254;BME280;22291;52.250;21.228;2023-11-19T07:27:15;100424.80;;;-0.16;100.00
36254;BME280;22291;52.250;21.228;2023-11-19T07:29:43;100417.09;;;-0.15;100.00
36254;BME280;22291;52.250;21.228;2023-11-19T07:32:11;100422.38;;;-0.18;100.00
36254;BME280;22291;52.250;21.228;2023-11-19T07:34:40;100422.27;;;-0.23;100.00
36254;BME280;22291;52.250;21.228;2023-11-19T07:37:07;100424.59;;;-0.27;100.00
36254;BME280;22291;52.250;21.228;2023-11-19T07:39:34;100414.42;;;-0.30;100.00
36254;BME280;22291;52.250;21.228;2023-11-19T07:42:01;100420.72;;;-0.33;100.00
36254;BME280;22291;52.250;21.228;2023-11-19T07:44:29;100422.81;;;-0.35;100.00
36254;BME280;22291;52.250;21.228;2023-11-19T07:46:56;100412.91;;;-0.38;100.00
36254;BME280;22291;52.250;21.228;2023-11-19T07:49:23;100415.83;;;-0.39;100.00
36254;BME280;22291;52.250;21.228;2023-11-19T07:51:50;100409.41;;;-0.41;100.00
36254;BME280;22291;52.250;21.228;2023-11-19T07:54:19;100411.31;;;-0.39;100.00
36254;BME280;22291;52.250;21.228;2023-11-19T07:56:47;100401.67;;;-0.42;100.00
36254;BME280;22291;52.250;21.228;2023-11-19T07:59:16;100404.70;;;-0.36;100.00
36254;BME280;22291;52.250;21.228;2023-11-19T08:01:42;100403.72;;;-0.32;100.00
36254;BME280;22291;52.250;21.228;2023-11-19T08:04:10;100393.16;;;-0.30;100.00
36254;BME280;22291;52.250;21.228;2023-11-19T08:06:37;100392.39;;;-0.28;100.00
36254;BME280;22291;52.250;21.228;2023-11-19T08:09:05;100386.91;;;-0.24;100.00
36254;BME280;22291;52.250;21.228;2023-11-19T08:11:33;100390.01;;;-0.15;100.00
36254;BME280;22291;52.250;21.228;2023-11-19T08:14:00;100380.57;;;-0.08;100.00
36254;BME280;22291;52.250;21.228;2023-11-19T08:16:27;100367.27;;;-0.08;100.00
36254;BME280;22291;52.250;21.228;2023-11-19T08:18:53;100368.17;;;-0.03;100.00
36254;BME280;22291;52.250;21.228;2023-11-19T08:21:21;100363.81;;;0.06;100.00
36254;BME280;22291;52.250;21.228;2023-11-19T08:23:49;100366.27;;;0.10;100.00
36254;BME280;22291;52.250;21.228;2023-11-19T08:26:16;100359.91;;;0.11;100.00
36254;BME280;22291;52.250;21.228;2023-11-19T08:28:44;100360.48;;;0.13;100.00
36254;BME280;22291;52.250;21.228;2023-11-19T08:31:11;100349.40;;;0.18;100.00
36254;BME280;22291;52.250;21.228;2023-11-19T08:33:38;100354.25;;;0.22;100.00
36254;BME280;22291;52.250;21.228;2023-11-19T08:36:07;100347.33;;;0.21;100.00
36254;BME280;22291;52.250;21.228;2023-11-19T08:38:34;100358.80;;;0.24;100.00
36254;BME280;22291;52.250;21.228;2023-11-19T08:41:00;100349.22;;;0.23;100.00
36254;BME280;22291;52.250;21.228;2023-11-19T08:43:27;100346.59;;;0.25;100.00
36254;BME280;22291;52.250;21.228;2023-11-19T08:45:54;100340.23;;;0.26;100.00
36254;BME280;22291;52.250;21.228;2023-11-19T08:48:21;100329.30;;;0.25;100.00
36254;BME280;22291;52.250;21.228;2023-11-19T08:50:47;100330.22;;;0.31;100.00
36254;BME280;22291;52.250;21.228;2023-11-19T08:53:14;100334.47;;;0.32;100.00
36254;BME280;22291;52.250;21.228;2023-11-19T08:55:41;100329.16;;;0.32;100.00
36254;BME280;22291;52.250;21.228;2023-11-19T08:58:08;100334.38;;;0.41;100.00
36254;BME280;22291;52.250;21.228;2023-11-19T09:00:35;100332.61;;;0.47;100.00
36254;BME280;22291;52.250;21.228;2023-11-19T09:03:02;100327.31;;;0.49;100.00
36254;BME280;22291;52.250;21.228;2023-11-19T09:05:29;100326.33;;;0.53;100.00
36254;BME280;22291;52.250;21.228;2023-11-19T09:07:55;100314.59;;;0.51;100.00
36254;BME280;22291;52.250;21.228;2023-11-19T09:10:22;100315.84;;;0.63;100.00
36254;BME280;22291;52.250;21.228;2023-11-19T09:12:49;100305.22;;;0.66;100.00
36254;BME280;22291;52.250;21.228;2023-11-19T09:15:16;100301.70;;;0.63;99.97
36254;BME280;22291;52.250;21.228;2023-11-19T09:17:42;100301.92;;;0.59;99.74
36254;BME280;22291;52.250;21.228;2023-11-19T09:20:11;100302.95;;;0.58;99.57
36254;BME280;22291;52.250;21.228;2023-11-19T09:22:40;100303.20;;;0.56;99.50
36254;BME280;22291;52.250;21.228;2023-11-19T09:25:07;100304.74;;;0.52;99.34
36254;BME280;22291;52.250;21.228;2023-11-19T09:27:35;100296.76;;;0.52;99.61
36254;BME280;22291;52.250;21.228;2023-11-19T09:30:02;100289.55;;;0.50;99.41
36254;BME280;22291;52.250;21.228;2023-11-19T09:32:30;100290.88;;;0.50;99.61
36254;BME280;22291;52.250;21.228;2023-11-19T09:34:57;100289.02;;;0.50;99.90
36254;BME280;22291;52.250;21.228;2023-11-19T09:37:24;100280.47;;;0.48;99.76
36254;BME280;22291;52.250;21.228;2023-11-19T09:39:51;100278.60;;;0.49;99.73
36254;BME280;22291;52.250;21.228;2023-11-19T09:42:19;100270.86;;;0.47;99.68
36254;BME280;22291;52.250;21.228;2023-11-19T09:44:48;100257.79;;;0.46;99.50
36254;BME280;22291;52.250;21.228;2023-11-19T09:47:17;100254.57;;;0.44;99.65
36254;BME280;22291;52.250;21.228;2023-11-19T09:49:48;100257.53;;;0.45;99.91
36254;BME280;22291;52.250;21.228;2023-11-19T09:52:16;100251.67;;;0.45;99.85
36254;BME280;22291;52.250;21.228;2023-11-19T09:54:42;100245.31;;;0.46;100.00
36254;BME280;22291;52.250;21.228;2023-11-19T09:57:11;100239.22;;;0.48;100.00
36254;BME280;22291;52.250;21.228;2023-11-19T09:59:40;100231.17;;;0.46;99.53
36254;BME280;22291;52.250;21.228;2023-11-19T10:02:08;100226.94;;;0.47;99.95
36254;BME280;22291;52.250;21.228;2023-11-19T10:04:36;100224.60;;;0.51;100.00
36254;BME280;22291;52.250;21.228;2023-11-19T10:07:04;100224.36;;;0.52;100.00
36254;BME280;22291;52.250;21.228;2023-11-19T10:09:32;100219.33;;;0.53;100.00
36254;BME280;22291;52.250;21.228;2023-11-19T10:11:58;100216.98;;;0.57;100.00
36254;BME280;22291;52.250;21.228;2023-11-19T10:14:27;100217.70;;;0.52;99.54
36254;BME280;22291;52.250;21.228;2023-11-19T10:16:55;100209.16;;;0.50;99.40
36254;BME280;22291;52.250;21.228;2023-11-19T10:19:22;100212.06;;;0.49;99.41
36254;BME280;22291;52.250;21.228;2023-11-19T10:21:50;100206.74;;;0.49;99.54
36254;BME280;22291;52.250;21.228;2023-11-19T10:24:16;100204.86;;;0.47;99.78
36254;BME280;22291;52.250;21.228;2023-11-19T10:38:15;100179.59;;;0.49;99.99
36254;BME280;22291;52.250;21.228;2023-11-19T10:40:42;100172.38;;;0.47;99.49
36254;BME280;22291;52.250;21.228;2023-11-19T10:43:09;100168.88;;;0.44;99.62
36254;BME280;22291;52.250;21.228;2023-11-19T10:45:37;100165.71;;;0.45;99.54
36254;BME280;22291;52.250;21.228;2023-11-19T10:48:06;100154.75;;;0.41;99.58
36254;BME280;22291;52.250;21.228;2023-11-19T10:50:35;100160.41;;;0.47;100.00
36254;BME280;22291;52.250;21.228;2023-11-19T10:53:03;100147.66;;;0.49;100.00
36254;BME280;22291;52.250;21.228;2023-11-19T10:55:39;100143.72;;;0.52;100.00
36254;BME280;22291;52.250;21.228;2023-11-19T10:58:11;100141.83;;;0.50;99.92
36254;BME280;22291;52.250;21.228;2023-11-19T11:00:44;100139.72;;;0.52;100.00
36254;BME280;22291;52.250;21.228;2023-11-19T11:03:19;100131.20;;;0.52;100.00
36254;BME280;22291;52.250;21.228;2023-11-19T11:05:49;100127.19;;;0.50;99.85
36254;BME280;22291;52.250;21.228;2023-11-19T11:08:17;100128.28;;;0.51;100.00
36254;BME280;22291;52.250;21.228;2023-11-19T11:10:54;100118.67;;;0.50;100.00
36254;BME280;22291;52.250;21.228;2023-11-19T11:13:25;100120.48;;;0.47;99.76
36254;BME280;22291;52.250;21.228;2023-11-19T11:15:56;100102.10;;;0.46;99.83
36254;BME280;22291;52.250;21.228;2023-11-19T11:18:27;100098.09;;;0.43;99.96
36254;BME280;22291;52.250;21.228;2023-11-19T11:20:57;100088.48;;;0.42;100.00
36254;BME280;22291;52.250;21.228;2023-11-19T11:29:46;100070.63;;;0.38;99.87
36254;BME280;22291;52.250;21.228;2023-11-19T11:37:47;100064.47;;;0.37;100.00
36254;BME280;22291;52.250;21.228;2023-11-19T11:40:19;100057.27;;;0.35;100.00
36254;BME280;22291;52.250;21.228;2023-11-19T11:42:46;100053.83;;;0.37;100.00
36254;BME280;22291;52.250;21.228;2023-11-19T11:45:14;100043.97;;;0.35;100.00
36254;BME280;22291;52.250;21.228;2023-11-19T11:50:18;100041.55;;;0.33;100.00
36254;BME280;22291;52.250;21.228;2023-11-19T11:55:37;100043.66;;;0.31;100.00
36254;BME280;22291;52.250;21.228;2023-11-19T11:58:06;100038.05;;;0.30;100.00
36254;BME280;22291;52.250;21.228;2023-11-19T12:00:38;100030.84;;;0.28;100.00
36254;BME280;22291;52.250;21.228;2023-11-19T12:03:07;100023.11;;;0.27;100.00
36254;BME280;22291;52.250;21.228;2023-11-19T12:05:42;100003.69;;;0.26;100.00
36254;BME280;22291;52.250;21.228;2023-11-19T12:08:11;100003.69;;;0.26;100.00
36254;BME280;22291;52.250;21.228;2023-11-19T12:10:48;100010.35;;;0.29;100.00
36254;BME280;22291;52.250;21.228;2023-11-19T12:13:17;99995.72;;;0.29;100.00
36254;BME280;22291;52.250;21.228;2023-11-19T12:18:30;99985.67;;;0.33;100.00
36254;BME280;22291;52.250;21.228;2023-11-19T12:21:02;99983.31;;;0.37;100.00
36254;BME280;22291;52.250;21.228;2023-11-19T12:23:31;99972.67;;;0.37;100.00
36254;BME280;22291;52.250;21.228;2023-11-19T12:25:58;99971.33;;;0.34;100.00
36254;BME280;22291;52.250;21.228;2023-11-19T12:28:25;99962.52;;;0.34;100.00
36254;BME280;22291;52.250;21.228;2023-11-19T12:30:54;99957.48;;;0.32;100.00
36254;BME280;22291;52.250;21.228;2023-11-19T12:33:25;99958.53;;;0.34;100.00
36254;BME280;22291;52.250;21.228;2023-11-19T12:35:52;99961.48;;;0.35;100.00
36254;BME280;22291;52.250;21.228;2023-11-19T12:41:07;99955.86;;;0.31;100.00
36254;BME280;22291;52.250;21.228;2023-11-19T12:43:36;99937.23;;;0.31;100.00
36254;BME280;22291;52.250;21.228;2023-11-19T12:46:23;99930.58;;;0.31;100.00
36254;BME280;22291;52.250;21.228;2023-11-19T12:48:52;99934.28;;;0.30;100.00
36254;BME280;22291;52.250;21.228;2023-11-19T12:51:19;99924.42;;;0.28;100.00
36254;BME280;22291;52.250;21.228;2023-11-19T12:53:52;99927.13;;;0.31;100.00
36254;BME280;22291;52.250;21.228;2023-11-19T12:56:24;99925.80;;;0.31;100.00
36254;BME280;22291;52.250;21.228;2023-11-19T12:58:51;99929.27;;;0.34;100.00
36254;BME280;22291;52.250;21.228;2023-11-19T13:01:19;99925.56;;;0.35;100.00
36254;BME280;22291;52.250;21.228;2023-11-19T13:03:47;99916.78;;;0.34;100.00
36254;BME280;22291;52.250;21.228;2023-11-19T13:06:18;99926.64;;;0.36;100.00
36254;BME280;22291;52.250;21.228;2023-11-19T13:08:49;99922.11;;;0.34;100.00
36254;BME280;22291;52.250;21.228;2023-11-19T13:11:33;99917.58;;;0.35;100.00
36254;BME280;22291;52.250;21.228;2023-11-19T13:14:03;99911.22;;;0.36;100.00
36254;BME280;22291;52.250;21.228;2023-11-19T13:16:31;99913.34;;;0.36;100.00
36254;BME280;22291;52.250;21.228;2023-11-19T13:18:58;99906.69;;;0.36;100.00